createdAt,value
2019-05-21T00:00:05.509Z,15.40
2019-05-21T00:01:08.221Z,15.40
2019-05-21T00:02:05.158Z,15.40
2019-05-21T00:03:05.222Z,15.40
2019-05-21T00:04:05.252Z,15.40
2019-05-21T00:05:04.906Z,15.30
2019-05-21T00:06:07.663Z,15.40
2019-05-21T00:07:08.306Z,15.40
2019-05-21T00:08:05.268Z,15.30
2019-05-21T00:09:05.309Z,15.30
2019-05-21T00:10:05.374Z,15.40
2019-05-21T00:11:05.581Z,15.40
2019-05-21T00:12:04.808Z,15.40
2019-05-21T00:13:07.526Z,15.30
2019-05-21T00:14:05.444Z,15.30
2019-05-21T00:15:05.488Z,15.40
2019-05-21T00:16:05.574Z,15.40
2019-05-21T00:17:08.142Z,15.40
2019-05-21T00:18:07.693Z,15.40
2019-05-21T00:19:10.722Z,15.40
2019-05-21T00:20:04.811Z,15.40
2019-05-21T00:21:09.945Z,15.30
2019-05-21T00:22:07.389Z,15.40
2019-05-21T00:23:07.905Z,15.40
2019-05-21T00:24:04.798Z,15.40
2019-05-21T00:25:04.905Z,15.40
2019-05-21T00:26:05.215Z,15.40
2019-05-21T00:27:07.787Z,15.30
2019-05-21T00:28:04.674Z,15.30
2019-05-21T00:29:04.918Z,15.30
2019-05-21T00:30:05.317Z,15.30
2019-05-21T00:31:05.529Z,15.30
2019-05-21T00:32:05.669Z,15.30
2019-05-21T00:33:04.841Z,15.30
2019-05-21T00:34:07.461Z,15.20
2019-05-21T00:35:05.424Z,15.20
2019-05-21T00:36:05.435Z,15.20
2019-05-21T00:37:08.024Z,15.20
2019-05-21T00:38:04.939Z,15.20
2019-05-21T00:39:05.034Z,15.20
2019-05-21T00:40:05.142Z,15.10
2019-05-21T00:41:05.256Z,15.10
2019-05-21T00:42:05.380Z,15.10
2019-05-21T00:43:05.433Z,15.10
2019-05-21T00:44:04.930Z,15.10
2019-05-21T00:45:08.033Z,15.00
2019-05-21T00:46:07.632Z,15.00
2019-05-21T00:47:05.579Z,15.00
2019-05-21T00:48:05.906Z,15.00
2019-05-21T00:49:05.123Z,15.00
2019-05-21T00:50:05.178Z,15.00
2019-05-21T00:51:05.210Z,15.00
2019-05-21T00:52:08.314Z,15.00
2019-05-21T00:53:05.275Z,15.00
2019-05-21T00:54:07.894Z,15.00
2019-05-21T00:55:07.410Z,15.00
2019-05-21T00:56:05.318Z,15.00
2019-05-21T00:57:10.517Z,14.90
2019-05-21T00:58:05.226Z,15.00
2019-05-21T00:59:05.272Z,15.00
2019-05-21T01:00:05.649Z,14.90
2019-05-21T01:01:07.617Z,14.90
2019-05-21T01:02:08.198Z,14.90
2019-05-21T01:03:07.674Z,14.90
2019-05-21T01:04:05.577Z,14.90
2019-05-21T01:05:07.575Z,14.90
2019-05-21T01:06:05.544Z,14.90
2019-05-21T01:07:07.350Z,14.90
2019-05-21T01:08:05.400Z,14.90
2019-05-21T01:09:05.490Z,14.90
2019-05-21T01:10:08.152Z,14.90
2019-05-21T01:11:05.122Z,14.80
2019-05-21T01:12:05.147Z,14.80
2019-05-21T01:13:07.790Z,14.80
2019-05-21T01:14:07.269Z,14.80
2019-05-21T01:15:05.228Z,14.80
2019-05-21T01:16:05.336Z,14.80
2019-05-21T01:17:07.929Z,14.80
2019-05-21T01:18:10.047Z,14.80
2019-05-21T01:19:05.001Z,14.80
2019-05-21T01:20:05.038Z,14.80
2019-05-21T01:21:05.071Z,14.80
2019-05-21T01:22:05.303Z,14.80
2019-05-21T01:23:05.345Z,14.80
2019-05-21T01:24:07.950Z,14.80
2019-05-21T01:25:04.847Z,14.80
2019-05-21T01:26:07.571Z,14.80
2019-05-21T01:27:05.505Z,14.80
2019-05-21T01:28:08.110Z,14.80
2019-05-21T01:29:05.052Z,14.80
2019-05-21T01:30:05.097Z,14.80
2019-05-21T01:31:07.716Z,14.80
2019-05-21T01:32:08.266Z,14.70
2019-05-21T01:33:05.395Z,14.80
2019-05-21T01:34:11.218Z,14.80
2019-05-21T01:35:16.438Z,14.80
2019-05-21T01:36:10.540Z,14.80
2019-05-21T01:37:07.462Z,14.80
2019-05-21T01:38:05.417Z,14.80
2019-05-21T01:39:04.679Z,14.80
2019-05-21T01:40:05.452Z,14.80
2019-05-21T01:41:05.633Z,14.70
2019-05-21T01:42:07.441Z,14.70
2019-05-21T01:43:07.860Z,14.80
2019-05-21T01:44:09.879Z,14.70
2019-05-21T01:45:04.845Z,14.70
2019-05-21T01:46:04.955Z,14.70
2019-05-21T01:47:10.309Z,14.70
2019-05-21T01:48:05.253Z,14.70
2019-05-21T01:49:05.358Z,14.80
2019-05-21T01:50:05.459Z,14.70
2019-05-21T01:51:08.204Z,14.70
2019-05-21T01:52:05.085Z,14.70
2019-05-21T01:53:10.670Z,14.70
2019-05-21T01:54:05.684Z,14.70
2019-05-21T01:55:04.726Z,14.70
2019-05-21T01:56:04.852Z,14.70
2019-05-21T01:57:04.892Z,14.80
2019-05-21T01:58:04.959Z,14.70
2019-05-21T01:59:07.558Z,14.80
2019-05-21T02:00:05.462Z,14.70
2019-05-21T02:01:05.558Z,14.80
2019-05-21T02:02:08.243Z,14.80
2019-05-21T02:03:07.788Z,14.80
2019-05-21T02:04:04.668Z,14.80
2019-05-21T02:05:04.728Z,14.80
2019-05-21T02:06:07.442Z,14.80
2019-05-21T02:07:10.523Z,14.80
2019-05-21T02:08:05.448Z,14.80
2019-05-21T02:09:05.508Z,14.80
2019-05-21T02:10:08.114Z,14.80
2019-05-21T02:11:05.116Z,14.80
2019-05-21T02:12:05.253Z,14.80
2019-05-21T02:13:07.862Z,14.80
2019-05-21T02:14:07.339Z,14.80
2019-05-21T02:15:05.340Z,14.80
2019-05-21T02:16:05.402Z,14.80
2019-05-21T02:17:05.596Z,14.80
2019-05-21T02:18:04.669Z,14.80
2019-05-21T02:19:04.722Z,14.80
2019-05-21T02:20:04.845Z,14.80
2019-05-21T02:21:07.467Z,14.80
2019-05-21T02:22:07.871Z,14.80
2019-05-21T02:23:04.916Z,14.90
2019-05-21T02:24:05.115Z,14.90
2019-05-21T02:25:08.074Z,14.90
2019-05-21T02:26:10.070Z,14.90
2019-05-21T02:27:05.000Z,14.80
2019-05-21T02:28:04.882Z,14.90
2019-05-21T02:29:04.993Z,14.90
2019-05-21T02:30:06.537Z,14.80
2019-05-21T02:31:04.819Z,14.90
2019-05-21T02:32:04.913Z,14.80
2019-05-21T02:33:08.153Z,14.90
2019-05-21T02:34:05.239Z,14.80
2019-05-21T02:35:05.450Z,14.90
2019-05-21T02:36:05.605Z,14.90
2019-05-21T02:37:06.257Z,14.90
2019-05-21T02:38:07.240Z,14.90
2019-05-21T02:39:05.290Z,14.90
2019-05-21T02:40:07.947Z,14.90
2019-05-21T02:41:07.640Z,14.90
2019-05-21T02:42:05.580Z,14.90
2019-05-21T02:43:04.869Z,14.90
2019-05-21T02:44:04.954Z,14.90
2019-05-21T02:45:05.392Z,14.90
2019-05-21T02:46:05.399Z,15.00
2019-05-21T02:47:05.314Z,14.90
2019-05-21T02:48:10.534Z,14.90
2019-05-21T02:49:05.472Z,15.00
2019-05-21T02:50:05.525Z,15.00
2019-05-21T02:51:05.608Z,15.00
2019-05-21T02:52:07.229Z,15.00
2019-05-21T02:53:07.613Z,15.00
2019-05-21T02:54:08.046Z,15.00
2019-05-21T02:55:04.921Z,15.00
2019-05-21T02:56:07.529Z,15.00
2019-05-21T02:57:07.981Z,15.00
2019-05-21T02:58:07.375Z,15.00
2019-05-21T02:59:10.323Z,15.00
2019-05-21T03:00:05.331Z,15.00
2019-05-21T03:01:07.991Z,15.00
2019-05-21T03:02:04.887Z,15.00
2019-05-21T03:03:10.016Z,15.00
2019-05-21T03:04:07.484Z,15.00
2019-05-21T03:05:08.064Z,15.00
2019-05-21T03:06:13.530Z,15.00
2019-05-21T03:07:04.909Z,15.00
2019-05-21T03:08:04.942Z,15.00
2019-05-21T03:09:07.663Z,15.00
2019-05-21T03:10:08.297Z,15.00
2019-05-21T03:11:07.748Z,15.00
2019-05-21T03:12:07.166Z,15.00
2019-05-21T03:13:07.745Z,15.00
2019-05-21T03:14:07.320Z,15.00
2019-05-21T03:15:07.975Z,15.00
2019-05-21T03:16:10.070Z,15.00
2019-05-21T03:17:07.643Z,15.00
2019-05-21T03:18:08.121Z,15.00
2019-05-21T03:19:07.770Z,15.00
2019-05-21T03:20:04.735Z,15.00
2019-05-21T03:21:07.481Z,15.00
2019-05-21T03:22:05.524Z,15.00
2019-05-21T03:23:05.656Z,15.00
2019-05-21T03:24:04.942Z,15.00
2019-05-21T03:25:05.006Z,15.00
2019-05-21T03:26:05.094Z,15.00
2019-05-21T03:27:05.230Z,15.00
2019-05-21T03:28:05.529Z,15.00
2019-05-21T03:29:07.225Z,15.00
2019-05-21T03:30:05.183Z,15.00
2019-05-21T03:31:05.309Z,15.00
2019-05-21T03:32:08.054Z,15.10
2019-05-21T03:33:07.545Z,15.10
2019-05-21T03:34:05.598Z,15.00
2019-05-21T03:35:07.278Z,15.10
2019-05-21T03:36:05.241Z,15.00
2019-05-21T03:37:13.094Z,15.00
2019-05-21T03:38:10.262Z,15.00
2019-05-21T03:39:10.345Z,15.10
2019-05-21T03:40:07.816Z,15.10
2019-05-21T03:41:04.832Z,15.00
2019-05-21T03:42:07.591Z,15.10
2019-05-21T03:43:05.657Z,15.10
2019-05-21T03:44:09.879Z,15.10
2019-05-21T03:45:07.675Z,15.10
2019-05-21T03:46:05.397Z,15.10
2019-05-21T03:47:05.639Z,15.10
2019-05-21T03:48:04.980Z,15.00
2019-05-21T03:49:05.147Z,15.10
2019-05-21T03:50:05.330Z,15.10
2019-05-21T03:51:05.532Z,15.10
2019-05-21T03:52:04.686Z,15.10
2019-05-21T03:53:07.433Z,15.10
2019-05-21T03:54:07.942Z,15.10
2019-05-21T03:55:04.855Z,15.10
2019-05-21T03:56:05.131Z,15.10
2019-05-21T03:57:05.424Z,15.10
2019-05-21T03:58:08.228Z,15.10
2019-05-21T03:59:05.343Z,15.10
2019-05-21T04:00:05.588Z,15.10
2019-05-21T04:01:04.802Z,15.10
2019-05-21T04:02:04.965Z,15.10
2019-05-21T04:03:07.612Z,15.10
2019-05-21T04:04:10.721Z,15.10
2019-05-21T04:05:04.828Z,15.10
2019-05-21T04:06:05.677Z,15.10
2019-05-21T04:07:05.195Z,15.10
2019-05-21T04:08:10.470Z,15.10
2019-05-21T04:09:05.575Z,15.10
2019-05-21T04:10:05.823Z,15.10
2019-05-21T04:11:04.947Z,15.10
2019-05-21T04:12:10.131Z,15.10
2019-05-21T04:13:10.315Z,15.10
2019-05-21T04:14:05.276Z,15.10
2019-05-21T04:15:13.182Z,15.10
2019-05-21T04:16:07.772Z,15.10
2019-05-21T04:17:04.903Z,15.10
2019-05-21T04:18:05.115Z,15.10
2019-05-21T04:19:05.273Z,15.10
2019-05-21T04:20:10.604Z,15.10
2019-05-21T04:21:05.611Z,15.10
2019-05-21T04:22:07.227Z,15.10
2019-05-21T04:23:07.624Z,15.10
2019-05-21T04:24:08.605Z,15.10
2019-05-21T04:25:08.598Z,15.10
2019-05-21T04:26:08.288Z,15.10
2019-05-21T04:27:07.681Z,15.10
2019-05-21T04:28:05.612Z,15.10
2019-05-21T04:29:04.762Z,15.10
2019-05-21T04:30:04.834Z,15.10
2019-05-21T04:31:07.870Z,15.20
2019-05-21T04:32:09.944Z,15.10
2019-05-21T04:33:07.469Z,15.10
2019-05-21T04:34:05.407Z,15.10
2019-05-21T04:35:05.551Z,15.10
2019-05-21T04:36:05.710Z,15.20
2019-05-21T04:37:10.254Z,15.20
2019-05-21T04:38:05.304Z,15.20
2019-05-21T04:39:05.389Z,15.20
2019-05-21T04:40:05.590Z,15.20
2019-05-21T04:41:07.301Z,15.20
2019-05-21T04:42:05.312Z,15.20
2019-05-21T04:43:05.468Z,15.20
2019-05-21T04:44:13.236Z,15.20
2019-05-21T04:45:08.877Z,15.20
2019-05-21T04:46:07.471Z,15.20
2019-05-21T04:47:07.977Z,15.20
2019-05-21T04:48:04.976Z,15.20
2019-05-21T04:49:10.104Z,15.20
2019-05-21T04:50:10.134Z,15.20
2019-05-21T04:51:13.666Z,15.20
2019-05-21T04:52:07.556Z,15.20
2019-05-21T04:53:08.127Z,15.20
2019-05-21T04:54:12.794Z,15.20
2019-05-21T04:55:04.723Z,15.20
2019-05-21T04:56:07.503Z,15.20
2019-05-21T04:57:10.499Z,15.20
2019-05-21T04:58:04.863Z,15.20
2019-05-21T04:59:05.087Z,15.20
2019-05-21T05:00:04.830Z,15.20
2019-05-21T05:01:05.131Z,15.20
2019-05-21T05:02:07.705Z,15.30
2019-05-21T05:03:05.642Z,15.20
2019-05-21T05:04:05.300Z,15.30
2019-05-21T05:05:07.730Z,15.30
2019-05-21T05:06:10.730Z,15.30
2019-05-21T05:07:05.723Z,15.30
2019-05-21T05:08:05.569Z,15.30
2019-05-21T05:09:09.959Z,15.40
2019-05-21T05:10:07.539Z,15.30
2019-05-21T05:11:08.153Z,15.40
2019-05-21T05:12:05.086Z,15.40
2019-05-21T05:13:05.413Z,15.30
2019-05-21T05:14:08.147Z,15.40
2019-05-21T05:15:07.605Z,15.30
2019-05-21T05:16:10.530Z,15.40
2019-05-21T05:17:05.504Z,15.40
2019-05-21T05:18:05.572Z,15.40
2019-05-21T05:19:08.325Z,15.50
2019-05-21T05:20:05.419Z,15.50
2019-05-21T05:21:05.682Z,15.50
2019-05-21T05:22:05.353Z,15.50
2019-05-21T05:23:08.084Z,15.50
2019-05-21T05:24:05.023Z,15.50
2019-05-21T05:25:05.148Z,15.40
2019-05-21T05:26:05.269Z,15.50
2019-05-21T05:27:05.371Z,15.50
2019-05-21T05:28:08.005Z,15.60
2019-05-21T05:29:04.897Z,15.60
2019-05-21T05:30:05.082Z,15.70
2019-05-21T05:31:07.814Z,15.70
2019-05-21T05:32:04.782Z,15.70
2019-05-21T05:33:07.461Z,15.80
2019-05-21T05:34:05.471Z,15.70
2019-05-21T05:35:05.562Z,15.90
2019-05-21T05:36:08.268Z,15.80
2019-05-21T05:37:05.311Z,15.80
2019-05-21T05:38:05.411Z,15.80
2019-05-21T05:39:05.572Z,15.80
2019-05-21T05:40:07.323Z,15.90
2019-05-21T05:41:05.554Z,15.90
2019-05-21T05:42:04.683Z,15.90
2019-05-21T05:43:07.766Z,16.00
2019-05-21T05:44:04.844Z,16.00
2019-05-21T05:45:05.333Z,16.10
2019-05-21T05:46:05.151Z,16.20
2019-05-21T05:47:05.409Z,16.30
2019-05-21T05:48:05.562Z,16.30
2019-05-21T05:49:09.885Z,16.40
2019-05-21T05:50:05.455Z,16.40
2019-05-21T05:51:05.746Z,16.40
2019-05-21T05:52:07.443Z,16.50
2019-05-21T05:53:07.862Z,16.50
2019-05-21T05:54:07.842Z,16.50
2019-05-21T05:55:07.651Z,16.60
2019-05-21T05:56:08.179Z,16.60
2019-05-21T05:57:05.352Z,16.60
2019-05-21T05:58:05.584Z,16.60
2019-05-21T05:59:09.843Z,16.60
2019-05-21T06:00:05.067Z,16.60
2019-05-21T06:01:05.244Z,16.60
2019-05-21T06:02:05.480Z,16.60
2019-05-21T06:03:05.709Z,16.60
2019-05-21T06:04:04.804Z,16.60
2019-05-21T06:05:04.948Z,16.60
2019-05-21T06:06:05.255Z,16.50
2019-05-21T06:07:05.448Z,16.60
2019-05-21T06:08:05.535Z,16.50
2019-05-21T06:09:07.704Z,16.50
2019-05-21T06:10:08.248Z,16.50
2019-05-21T06:11:05.283Z,16.50
2019-05-21T06:12:05.577Z,16.50
2019-05-21T06:13:07.458Z,16.50
2019-05-21T06:14:05.528Z,16.40
2019-05-21T06:15:04.858Z,16.50
2019-05-21T06:16:05.388Z,16.40
2019-05-21T06:17:08.173Z,16.40
2019-05-21T06:18:07.760Z,16.30
2019-05-21T06:19:04.913Z,16.40
2019-05-21T06:20:07.636Z,16.30
2019-05-21T06:21:08.222Z,16.30
2019-05-21T06:22:07.881Z,16.40
2019-05-21T06:23:05.034Z,16.30
2019-05-21T06:24:07.661Z,16.30
2019-05-21T06:25:06.022Z,16.30
2019-05-21T06:26:07.463Z,16.30
2019-05-21T06:27:08.219Z,16.30
2019-05-21T06:28:07.840Z,16.30
2019-05-21T06:29:05.071Z,16.30
2019-05-21T06:30:07.732Z,16.40
2019-05-21T06:31:07.361Z,16.40
2019-05-21T06:32:05.310Z,16.40
2019-05-21T06:33:05.418Z,16.40
2019-05-21T06:34:08.231Z,16.50
2019-05-21T06:35:05.164Z,16.40
2019-05-21T06:36:05.360Z,16.50
2019-05-21T06:37:08.180Z,16.50
2019-05-21T06:38:16.948Z,16.50
2019-05-21T06:39:10.333Z,16.50
2019-05-21T06:40:07.988Z,16.60
2019-05-21T06:41:12.623Z,16.60
2019-05-21T06:42:05.681Z,16.60
2019-05-21T06:43:07.343Z,16.70
2019-05-21T06:44:07.901Z,16.60
2019-05-21T06:45:09.959Z,16.60
2019-05-21T06:46:04.932Z,16.70
2019-05-21T06:47:05.104Z,16.70
2019-05-21T06:48:07.874Z,16.70
2019-05-21T06:49:04.812Z,16.70
2019-05-21T06:50:07.511Z,16.70
2019-05-21T06:51:05.462Z,16.70
2019-05-21T06:52:05.660Z,16.80
2019-05-21T06:53:07.387Z,16.70
2019-05-21T06:54:05.498Z,16.80
2019-05-21T06:55:08.129Z,16.80
2019-05-21T06:56:07.462Z,16.70
2019-05-21T06:57:05.124Z,16.80
2019-05-21T06:58:05.319Z,16.80
2019-05-21T06:59:05.515Z,16.70
2019-05-21T07:00:05.694Z,16.70
2019-05-21T07:01:05.410Z,16.70
2019-05-21T07:02:05.524Z,16.70
2019-05-21T07:03:04.816Z,16.70
2019-05-21T07:04:07.465Z,16.70
2019-05-21T07:05:05.508Z,16.70
2019-05-21T07:06:04.791Z,16.70
2019-05-21T07:07:07.545Z,16.70
2019-05-21T07:08:05.635Z,16.80
2019-05-21T07:09:04.794Z,16.80
2019-05-21T07:10:04.863Z,16.70
2019-05-21T07:11:04.994Z,16.80
2019-05-21T07:12:05.163Z,16.80
2019-05-21T07:13:05.356Z,16.80
2019-05-21T07:14:08.054Z,16.90
2019-05-21T07:15:10.055Z,16.90
2019-05-21T07:16:07.682Z,17.00
2019-05-21T07:17:07.264Z,17.00
2019-05-21T07:18:07.740Z,17.00
2019-05-21T07:19:07.301Z,17.00
2019-05-21T07:20:13.081Z,17.00
2019-05-21T07:21:05.031Z,17.00
2019-05-21T07:22:12.451Z,17.10
2019-05-21T07:23:05.441Z,17.10
2019-05-21T07:24:09.896Z,17.10
2019-05-21T07:25:10.023Z,17.10
2019-05-21T07:26:04.991Z,17.10
2019-05-21T07:27:05.135Z,17.20
2019-05-21T07:28:05.309Z,17.20
2019-05-21T07:29:05.512Z,17.20
2019-05-21T07:30:04.965Z,17.20
2019-05-21T07:31:05.036Z,17.30
2019-05-21T07:32:07.790Z,17.30
2019-05-21T07:33:05.032Z,17.30
2019-05-21T07:34:07.783Z,17.40
2019-05-21T07:35:07.453Z,17.40
2019-05-21T07:36:08.098Z,17.40
2019-05-21T07:37:05.089Z,17.40
2019-05-21T07:38:05.248Z,17.30
2019-05-21T07:39:05.385Z,17.40
2019-05-21T07:40:05.486Z,17.40
2019-05-21T07:41:05.658Z,17.40
2019-05-21T07:42:07.339Z,17.40
2019-05-21T07:43:05.343Z,17.40
2019-05-21T07:44:05.576Z,17.40
2019-05-21T07:45:07.816Z,17.40
2019-05-21T07:46:04.813Z,17.40
2019-05-21T07:47:05.112Z,17.40
2019-05-21T07:48:05.279Z,17.40
2019-05-21T07:49:05.302Z,17.40
2019-05-21T07:50:04.720Z,17.50
2019-05-21T07:51:09.955Z,17.50
2019-05-21T07:52:07.594Z,17.50
2019-05-21T07:53:05.679Z,17.50
2019-05-21T07:54:04.741Z,17.60
2019-05-21T07:55:04.913Z,17.50
2019-05-21T07:56:04.980Z,17.60
2019-05-21T07:57:05.255Z,17.50
2019-05-21T07:58:05.408Z,17.60
2019-05-21T07:59:05.543Z,17.60
2019-05-21T08:00:07.244Z,17.60
2019-05-21T08:01:07.778Z,17.60
2019-05-21T08:02:04.763Z,17.60
2019-05-21T08:03:04.877Z,17.60
2019-05-21T08:04:05.199Z,17.60
2019-05-21T08:05:05.946Z,17.60
2019-05-21T08:06:05.455Z,17.60
2019-05-21T08:07:05.561Z,17.60
2019-05-21T08:08:08.035Z,17.60
2019-05-21T08:09:13.009Z,17.60
2019-05-21T08:10:05.000Z,17.60
2019-05-21T08:11:05.701Z,17.60
2019-05-21T08:12:22.699Z,17.60
2019-05-21T08:13:07.641Z,17.60
2019-05-21T08:14:08.153Z,17.60
2019-05-21T08:15:07.834Z,17.60
2019-05-21T08:16:04.779Z,17.60
2019-05-21T08:17:04.980Z,17.70
2019-05-21T08:18:05.170Z,17.70
2019-05-21T08:19:05.315Z,17.70
2019-05-21T08:20:09.695Z,17.70
2019-05-21T08:21:04.896Z,17.70
2019-05-21T08:22:05.267Z,17.70
2019-05-21T08:23:10.438Z,17.70
2019-05-21T08:24:07.912Z,17.70
2019-05-21T08:25:04.863Z,17.70
2019-05-21T08:26:04.948Z,17.70
2019-05-21T08:27:07.535Z,17.80
2019-05-21T08:28:05.529Z,17.80
2019-05-21T08:29:05.752Z,17.80
2019-05-21T08:30:04.942Z,17.80
2019-05-21T08:31:05.104Z,17.80
2019-05-21T08:32:07.950Z,17.80
2019-05-21T08:33:05.000Z,17.80
2019-05-21T08:34:07.625Z,17.90
2019-05-21T08:35:05.684Z,17.90
2019-05-21T08:36:05.245Z,18.00
2019-05-21T08:37:12.594Z,18.00
2019-05-21T08:38:06.680Z,18.00
2019-05-21T08:39:05.025Z,18.00
2019-05-21T08:40:07.693Z,18.10
2019-05-21T08:41:10.702Z,18.00
2019-05-21T08:42:04.737Z,18.00
2019-05-21T08:43:05.642Z,18.00
2019-05-21T08:44:04.765Z,18.00
2019-05-21T08:45:05.564Z,18.00
2019-05-21T08:46:07.559Z,17.90
2019-05-21T08:47:08.056Z,17.80
2019-05-21T08:48:05.037Z,17.80
2019-05-21T08:49:05.528Z,17.80
2019-05-21T08:50:04.724Z,17.70
2019-05-21T08:51:05.410Z,17.70
2019-05-21T08:52:05.514Z,17.70
2019-05-21T08:53:04.796Z,17.60
2019-05-21T08:54:07.832Z,17.50
2019-05-21T08:55:04.784Z,17.50
2019-05-21T08:56:12.505Z,17.40
2019-05-21T08:57:13.127Z,17.40
2019-05-21T08:59:07.255Z,17.40
2019-05-21T09:00:05.180Z,17.40
2019-05-21T09:01:10.727Z,17.30
2019-05-21T09:02:04.914Z,17.40
2019-05-21T09:03:05.029Z,17.40
2019-05-21T09:03:13.787Z,17.40
2019-05-21T09:04:10.157Z,17.40
2019-05-21T09:05:05.487Z,17.40
2019-05-21T09:06:08.166Z,17.40
2019-05-21T09:07:05.103Z,17.40
2019-05-21T09:08:07.741Z,17.40
2019-05-21T09:09:07.241Z,17.50
2019-05-21T09:10:05.217Z,17.50
2019-05-21T09:11:07.878Z,17.50
2019-05-21T09:12:04.974Z,17.50
2019-05-21T09:13:05.148Z,17.50
2019-05-21T09:14:05.279Z,17.50
2019-05-21T09:15:07.921Z,17.60
2019-05-21T09:16:07.408Z,17.60
2019-05-21T09:17:05.456Z,17.60
2019-05-21T09:18:05.586Z,17.50
2019-05-21T09:19:07.257Z,17.50
2019-05-21T09:20:05.268Z,17.50
2019-05-21T09:21:05.639Z,17.40
2019-05-21T09:22:07.327Z,17.40
2019-05-21T09:23:05.430Z,17.40
2019-05-21T09:24:05.476Z,17.40
2019-05-21T09:25:05.074Z,17.40
2019-05-21T09:26:05.459Z,17.40
2019-05-21T09:27:05.674Z,17.40
2019-05-21T09:28:07.345Z,17.50
2019-05-21T09:29:05.370Z,17.50
2019-05-21T09:30:05.468Z,17.50
2019-05-21T09:31:08.249Z,17.50
2019-05-21T09:32:05.201Z,17.50
2019-05-21T09:33:05.602Z,17.50
2019-05-21T09:34:07.355Z,17.50
2019-05-21T09:35:07.988Z,17.50
2019-05-21T09:36:05.004Z,17.50
2019-05-21T09:37:18.382Z,17.50
2019-05-21T09:38:05.088Z,17.40
2019-05-21T09:39:05.198Z,17.50
2019-05-21T09:40:10.528Z,17.50
2019-05-21T09:41:08.232Z,17.60
2019-05-21T09:42:07.762Z,17.60
2019-05-21T09:43:04.761Z,17.60
2019-05-21T09:44:05.134Z,17.60
2019-05-21T09:45:05.615Z,17.70
2019-05-21T09:46:07.428Z,17.70
2019-05-21T09:47:08.177Z,17.70
2019-05-21T09:48:07.775Z,17.80
2019-05-21T09:49:04.723Z,17.80
2019-05-21T09:50:05.122Z,17.80
2019-05-21T09:51:08.130Z,17.90
2019-05-21T09:52:07.547Z,18.00
2019-05-21T09:53:05.459Z,17.90
2019-05-21T09:54:05.613Z,18.00
2019-05-21T09:55:07.302Z,18.00
2019-05-21T09:56:05.431Z,18.00
2019-05-21T09:57:05.724Z,18.00
2019-05-21T09:58:07.430Z,18.10
2019-05-21T09:59:07.990Z,18.10
2019-05-21T10:00:05.126Z,18.10
2019-05-21T10:01:05.225Z,18.10
2019-05-21T10:02:05.336Z,18.20
2019-05-21T10:03:08.026Z,18.30
2019-05-21T10:04:07.762Z,18.30
2019-05-21T10:05:07.359Z,18.40
2019-05-21T10:06:05.359Z,18.30
2019-05-21T10:07:10.432Z,18.40
2019-05-21T10:08:08.268Z,18.40
2019-05-21T10:09:05.182Z,18.40
2019-05-21T10:10:05.264Z,18.40
2019-05-21T10:11:05.556Z,18.40
2019-05-21T10:12:07.348Z,18.40
2019-05-21T10:13:07.831Z,18.30
2019-05-21T10:14:04.840Z,18.40
2019-05-21T10:15:05.086Z,18.30
2019-05-21T10:16:05.258Z,18.30
2019-05-21T10:17:08.004Z,18.40
2019-05-21T10:18:04.936Z,18.30
2019-05-21T10:19:07.654Z,18.50
2019-05-21T10:20:08.233Z,18.60
2019-05-21T10:21:07.633Z,18.70
2019-05-21T10:22:05.899Z,18.70
2019-05-21T10:23:08.017Z,15.70
2019-05-21T10:24:15.202Z,19.10
2019-05-21T10:25:15.937Z,19.20
2019-05-21T10:26:05.188Z,19.20
2019-05-21T10:27:07.793Z,19.30
2019-05-21T10:28:12.304Z,19.30
2019-05-21T10:29:04.901Z,19.20
2019-05-21T10:30:05.393Z,19.30
2019-05-21T10:31:05.643Z,19.30
2019-05-21T10:32:04.880Z,19.20
2019-05-21T10:33:05.031Z,19.30
2019-05-21T10:34:05.110Z,19.30
2019-05-21T10:35:05.520Z,19.40
2019-05-21T10:36:07.915Z,19.40
2019-05-21T10:37:05.019Z,19.40
2019-05-21T10:38:07.747Z,19.40
2019-05-21T10:39:05.790Z,19.40
2019-05-21T10:40:05.101Z,19.40
2019-05-21T10:41:05.522Z,19.40
2019-05-21T10:42:07.548Z,19.40
2019-05-21T10:43:10.541Z,19.50
2019-05-21T10:44:05.488Z,19.40
2019-05-21T10:45:04.988Z,19.50
2019-05-21T10:46:07.671Z,19.60
2019-05-21T10:47:05.701Z,19.60
2019-05-21T10:48:05.290Z,19.70
2019-05-21T10:49:05.476Z,19.70
2019-05-21T10:50:08.368Z,19.80
2019-05-21T10:51:05.459Z,19.70
2019-05-21T10:52:05.613Z,19.80
2019-05-21T10:53:04.863Z,19.70
2019-05-21T10:54:05.115Z,19.70
2019-05-21T10:55:07.751Z,19.60
2019-05-21T10:56:07.426Z,19.60
2019-05-21T10:57:07.945Z,19.60
2019-05-21T10:58:04.961Z,19.60
2019-05-21T10:59:05.173Z,19.60
2019-05-21T11:00:05.318Z,19.60
2019-05-21T11:01:08.122Z,19.50
2019-05-21T11:02:07.716Z,19.50
2019-05-21T11:03:05.049Z,19.50
2019-05-21T11:04:05.149Z,19.50
2019-05-21T11:05:05.328Z,19.50
2019-05-21T11:06:09.902Z,19.50
2019-05-21T11:07:10.713Z,19.60
2019-05-21T11:08:22.655Z,19.60
2019-05-21T11:09:10.124Z,19.60
2019-05-21T11:10:05.262Z,19.60
2019-05-21T11:11:08.365Z,19.60
2019-05-21T11:12:05.497Z,19.60
2019-05-21T11:13:08.089Z,19.60
2019-05-21T11:14:07.695Z,19.60
2019-05-21T11:15:04.756Z,19.60
2019-05-21T11:16:05.035Z,19.60
2019-05-21T11:17:05.329Z,19.70
2019-05-21T11:18:10.874Z,19.70
2019-05-21T11:19:10.237Z,19.70
2019-05-21T11:20:05.220Z,19.70
2019-05-21T11:21:05.340Z,19.80
2019-05-21T11:22:10.564Z,20.00
2019-05-21T11:23:05.643Z,20.00
2019-05-21T11:24:04.796Z,20.10
2019-05-21T11:25:05.038Z,20.30
2019-05-21T11:26:05.745Z,20.30
2019-05-21T11:27:05.536Z,20.40
2019-05-21T11:28:06.154Z,20.50
2019-05-21T11:29:05.523Z,20.50
2019-05-21T11:30:10.692Z,20.50
2019-05-21T11:31:05.555Z,20.50
2019-05-21T11:32:05.648Z,20.50
2019-05-21T11:33:04.880Z,20.50
2019-05-21T11:34:10.198Z,20.60
2019-05-21T11:35:07.851Z,20.60
2019-05-21T11:36:05.169Z,20.60
2019-05-21T11:37:07.802Z,20.60
2019-05-21T11:38:04.756Z,20.60
2019-05-21T11:39:04.894Z,20.60
2019-05-21T11:40:07.896Z,20.50
2019-05-21T11:41:05.651Z,20.60
2019-05-21T11:42:04.723Z,20.60
2019-05-21T11:43:10.031Z,20.60
2019-05-21T11:44:05.024Z,20.60
2019-05-21T11:45:05.620Z,20.60
2019-05-21T11:46:07.254Z,20.70
2019-05-21T11:47:05.299Z,20.70
2019-05-21T11:48:05.392Z,20.80
2019-05-21T11:49:05.566Z,20.80
2019-05-21T11:50:04.953Z,20.80
2019-05-21T11:51:07.632Z,20.90
2019-05-21T11:52:08.145Z,21.00
2019-05-21T11:53:05.125Z,21.00
2019-05-21T11:54:07.862Z,21.10
2019-05-21T11:55:04.974Z,21.10
2019-05-21T11:56:05.565Z,21.20
2019-05-21T11:57:07.818Z,21.20
2019-05-21T11:58:04.877Z,21.30
2019-05-21T11:59:07.712Z,21.30
2019-05-21T12:00:04.782Z,21.30
2019-05-21T12:01:10.062Z,21.40
2019-05-21T12:10:05.630Z,21.30
2019-05-21T12:11:05.471Z,21.30
2019-05-21T12:12:10.754Z,21.10
2019-05-21T12:13:09.844Z,21.10
2019-05-21T12:14:07.289Z,21.10
2019-05-21T12:15:07.838Z,21.10
2019-05-21T12:16:07.429Z,21.00
2019-05-21T12:17:07.928Z,20.90
2019-05-21T12:18:04.887Z,21.00
2019-05-21T12:19:08.395Z,20.90
2019-05-21T12:20:05.710Z,20.80
2019-05-21T12:21:07.389Z,20.70
2019-05-21T12:22:07.981Z,20.70
2019-05-21T12:23:04.980Z,20.70
2019-05-21T12:24:05.192Z,20.70
2019-05-21T12:25:05.291Z,20.70
2019-05-21T12:26:07.966Z,20.90
2019-05-21T12:27:07.642Z,21.00
2019-05-21T12:28:15.030Z,21.10
2019-05-21T12:29:07.543Z,21.20
2019-05-21T12:30:08.055Z,21.30
2019-05-21T12:31:07.530Z,21.40
2019-05-21T12:32:10.557Z,21.50
2019-05-21T12:33:10.539Z,21.60
2019-05-21T12:34:08.047Z,21.70
2019-05-21T12:35:04.936Z,21.70
2019-05-21T12:36:05.110Z,21.80
2019-05-21T12:37:07.755Z,21.90
2019-05-21T12:38:04.798Z,22.00
2019-05-21T12:39:13.474Z,22.00
2019-05-21T12:40:05.031Z,22.10
2019-05-21T12:41:07.918Z,22.10
2019-05-21T12:42:04.971Z,22.10
2019-05-21T12:43:05.182Z,22.00
2019-05-21T12:44:05.423Z,22.00
2019-05-21T12:45:05.590Z,21.90
2019-05-21T12:46:07.337Z,21.80
2019-05-21T12:47:09.804Z,21.70
2019-05-21T12:48:07.656Z,21.70
2019-05-21T12:49:07.234Z,21.60
2019-05-21T12:50:07.657Z,21.60
2019-05-21T12:51:08.269Z,21.50
2019-05-21T12:52:07.859Z,21.40
2019-05-21T12:53:04.951Z,21.50
2019-05-21T12:54:07.396Z,21.30
2019-05-21T12:55:05.312Z,21.40
2019-05-21T12:56:07.944Z,21.30
2019-05-21T12:57:07.511Z,21.30
2019-05-21T12:58:08.137Z,21.30
2019-05-21T12:59:05.109Z,21.30
2019-05-21T13:00:07.657Z,21.40